createdAt,value
2022-11-02T00:02:02.933Z,102072.81
2022-11-02T00:04:30.719Z,102074.84
2022-11-02T00:07:04.494Z,102070.97
2022-11-02T00:09:39.149Z,102065.69
2022-11-02T00:12:11.413Z,102065.19
2022-11-02T00:14:44.956Z,102066.31
2022-11-02T00:17:13.045Z,102069.19
2022-11-02T00:19:40.818Z,102062.25
2022-11-02T00:22:09.173Z,102062.91
2022-11-02T00:24:37.633Z,102067.22
2022-11-02T00:27:05.633Z,102070.50
2022-11-02T00:29:59.517Z,102071.50
2022-11-02T00:32:28.703Z,102073.28
2022-11-02T00:34:57.559Z,102056.13
2022-11-02T00:37:50.283Z,102066.94
2022-11-02T00:40:19.186Z,102067.03
2022-11-02T00:42:49.144Z,102069.72
2022-11-02T00:45:23.556Z,102060.47
2022-11-02T00:47:52.533Z,102053.59
2022-11-02T00:50:20.646Z,102054.47
2022-11-02T00:52:48.076Z,102065.66
2022-11-02T00:55:16.198Z,102067.41
2022-11-02T00:57:45.574Z,102063.53
2022-11-02T01:00:15.594Z,102062.72
2022-11-02T01:02:43.925Z,102063.81
2022-11-02T01:05:12.942Z,102070.38
2022-11-02T01:07:41.495Z,102064.25
2022-11-02T01:10:11.405Z,102070.91
2022-11-02T01:12:40.925Z,102075.09
2022-11-02T01:15:11.738Z,102072.41
2022-11-02T01:17:40.160Z,102079.09
2022-11-02T01:20:10.294Z,102075.97
2022-11-02T01:22:38.146Z,102065.59
2022-11-02T01:25:06.822Z,102069.00
2022-11-02T01:27:36.098Z,102069.41
2022-11-02T01:30:06.069Z,102070.13
2022-11-02T01:32:33.844Z,102070.97
2022-11-02T01:35:03.299Z,102068.81
2022-11-02T01:37:31.892Z,102063.84
2022-11-02T01:39:59.546Z,102059.28
2022-11-02T01:42:29.080Z,102061.81
2022-11-02T01:44:57.174Z,102059.03
2022-11-02T01:47:33.502Z,102068.66
2022-11-02T01:50:12.582Z,102067.81
2022-11-02T01:52:40.687Z,102063.31
2022-11-02T01:55:33.501Z,102065.50
2022-11-02T01:58:07.809Z,102058.13
2022-11-02T02:00:36.309Z,102062.34
2022-11-02T02:03:18.387Z,102066.25
2022-11-02T02:05:58.040Z,102064.59
2022-11-02T02:08:27.559Z,102070.78
2022-11-02T02:10:59.635Z,102071.47
2022-11-02T02:13:29.531Z,102066.25
2022-11-02T02:16:41.211Z,102069.06
2022-11-02T02:19:37.321Z,102067.88
2022-11-02T02:22:16.652Z,102079.09
2022-11-02T02:25:26.321Z,102078.44
2022-11-02T02:28:20.935Z,102073.53
2022-11-02T02:31:18.108Z,102075.38
2022-11-02T02:34:12.290Z,102073.25
2022-11-02T02:36:52.699Z,102078.25
2022-11-02T02:39:46.669Z,102082.41
2022-11-02T02:42:30.725Z,102076.38
2022-11-02T02:45:35.775Z,102073.63
2022-11-02T02:48:09.783Z,102079.25
2022-11-02T02:51:03.143Z,102077.69
2022-11-02T02:53:39.255Z,102073.88
2022-11-02T02:56:08.305Z,102073.44
2022-11-02T02:58:51.532Z,102070.66
2022-11-02T03:01:20.263Z,102074.84
2022-11-02T03:03:48.767Z,102071.19
2022-11-02T03:06:28.489Z,102077.31
2022-11-02T03:09:10.658Z,102081.47
2022-11-02T03:11:56.480Z,102081.22
2022-11-02T03:14:39.161Z,102086.59
2022-11-02T03:17:15.675Z,102083.63
2022-11-02T03:19:53.972Z,102084.84
2022-11-02T03:22:34.282Z,102084.28
2022-11-02T03:25:20.692Z,102094.66
2022-11-02T03:28:08.488Z,102082.69
2022-11-02T03:30:45.316Z,102084.84
2022-11-02T03:33:26.784Z,102085.16
2022-11-02T03:36:03.056Z,102085.16
2022-11-02T03:38:51.264Z,102089.50
2022-11-02T03:41:22.583Z,102084.56
2022-11-02T03:44:03.745Z,102094.88
2022-11-02T03:46:34.860Z,102098.66
2022-11-02T03:49:13.952Z,102095.44
2022-11-02T03:51:44.443Z,102100.16
2022-11-02T03:55:08.709Z,102100.25
2022-11-02T03:57:52.816Z,102097.41
2022-11-02T04:00:28.143Z,102093.91
2022-11-02T04:03:08.672Z,102098.47
2022-11-02T04:05:41.284Z,102097.63
2022-11-02T04:08:33.628Z,102098.25
2022-11-02T04:11:24.580Z,102101.88
2022-11-02T04:14:12.938Z,102093.00
2022-11-02T04:16:44.743Z,102094.41
2022-11-02T04:19:28.427Z,102106.47
2022-11-02T04:22:21.071Z,102098.75
2022-11-02T04:25:12.430Z,102101.91
2022-11-02T04:27:41.482Z,102098.22
2022-11-02T04:30:12.352Z,102104.78
2022-11-02T04:33:01.591Z,102106.53
2022-11-02T04:35:44.613Z,102110.78
2022-11-02T04:38:31.518Z,102112.59
2022-11-02T04:41:38.547Z,102119.09
2022-11-02T04:44:18.134Z,102124.47
2022-11-02T04:46:53.597Z,102114.91
2022-11-02T04:49:24.532Z,102114.09
2022-11-02T04:51:53.628Z,102117.41
2022-11-02T04:54:21.729Z,102118.81
2022-11-02T04:57:02.392Z,102114.44
2022-11-02T04:59:31.264Z,102111.69
2022-11-02T05:01:59.961Z,102117.34
2022-11-02T05:04:29.387Z,102115.47
2022-11-02T05:07:01.498Z,102115.28
2022-11-02T05:09:34.826Z,102101.88
2022-11-02T05:12:05.675Z,102104.03
2022-11-02T05:14:34.732Z,102112.56
2022-11-02T05:17:03.148Z,102118.78
2022-11-02T05:19:31.620Z,102120.28
2022-11-02T05:22:01.744Z,102122.78
2022-11-02T05:24:30.956Z,102119.72
2022-11-02T05:26:58.712Z,102128.91
2022-11-02T05:29:27.407Z,102115.47
2022-11-02T05:31:55.136Z,102118.91
2022-11-02T05:34:23.522Z,102125.59
2022-11-02T05:36:51.398Z,102126.41
2022-11-02T05:39:19.121Z,102127.59
2022-11-02T05:41:47.725Z,102124.72
2022-11-02T05:44:16.226Z,102142.53
2022-11-02T05:46:45.677Z,102146.59
2022-11-02T05:49:13.338Z,102146.03
2022-11-02T05:51:41.215Z,102156.28
2022-11-02T05:54:09.113Z,102149.41
2022-11-02T05:56:36.981Z,102147.91
2022-11-02T05:59:04.436Z,102160.97
2022-11-02T06:01:32.282Z,102166.53
2022-11-02T06:04:00.301Z,102163.66
2022-11-02T06:06:27.871Z,102153.66
2022-11-02T06:08:55.709Z,102151.63
2022-11-02T06:11:23.614Z,102145.78
2022-11-02T06:13:51.934Z,102136.81
2022-11-02T06:16:23.282Z,102149.22
2022-11-02T06:18:51.191Z,102157.66
2022-11-02T06:21:19.047Z,102166.50
2022-11-02T06:23:50.794Z,102169.06
2022-11-02T06:26:19.215Z,102165.00
2022-11-02T06:28:46.978Z,102167.19
2022-11-02T06:31:17.724Z,102181.44
2022-11-02T06:33:46.361Z,102175.00
2022-11-02T06:36:13.951Z,102174.31
2022-11-02T06:38:42.526Z,102179.50
2022-11-02T06:41:10.805Z,102188.66
2022-11-02T06:43:40.209Z,102178.94
2022-11-02T06:46:08.564Z,102184.31
2022-11-02T06:48:36.406Z,102192.34
2022-11-02T06:51:06.680Z,102197.84
2022-11-02T06:53:39.010Z,102195.41
2022-11-02T06:56:09.246Z,102204.06
2022-11-02T06:58:40.365Z,102202.09
2022-11-02T07:01:09.621Z,102209.53
2022-11-02T07:03:37.515Z,102212.50
2022-11-02T07:06:11.075Z,102209.56
2022-11-02T07:08:42.929Z,102212.63
2022-11-02T07:11:16.719Z,102221.97
2022-11-02T07:13:44.565Z,102219.19
2022-11-02T07:16:12.276Z,102219.41
2022-11-02T07:18:40.904Z,102212.53
2022-11-02T07:21:10.780Z,102215.63
2022-11-02T07:23:38.764Z,102227.00
2022-11-02T07:26:06.552Z,102224.94
2022-11-02T07:28:37.176Z,102234.78
2022-11-02T07:31:05.703Z,102230.16
2022-11-02T07:33:35.535Z,102227.72
2022-11-02T07:36:04.599Z,102236.44
2022-11-02T07:38:32.134Z,102235.59
2022-11-02T07:40:59.913Z,102243.84
2022-11-02T07:43:27.439Z,102233.88
2022-11-02T07:46:02.380Z,102235.59
2022-11-02T07:48:29.714Z,102236.75
2022-11-02T07:51:00.443Z,102232.22
2022-11-02T07:53:28.108Z,102240.75
2022-11-02T07:55:56.297Z,102233.19
2022-11-02T07:58:23.961Z,102230.56
2022-11-02T08:00:54.759Z,102236.66
2022-11-02T08:03:24.715Z,102232.63
2022-11-02T08:05:52.509Z,102236.88
2022-11-02T08:08:24.638Z,102241.31
2022-11-02T08:10:53.265Z,102238.47
2022-11-02T08:13:23.456Z,102242.69
2022-11-02T08:15:52.509Z,102242.47
2022-11-02T08:18:27.554Z,102242.94
2022-11-02T08:20:59.858Z,102246.09
2022-11-02T08:23:27.819Z,102252.34
2022-11-02T08:25:55.823Z,102259.66
2022-11-02T08:28:31.572Z,102254.59
2022-11-02T08:31:00.028Z,102251.53
2022-11-02T08:33:27.777Z,102270.28
2022-11-02T08:35:55.262Z,102265.53
2022-11-02T08:38:23.099Z,102262.66
2022-11-02T08:40:50.539Z,102256.63
2022-11-02T08:43:17.781Z,102241.53
2022-11-02T08:48:33.830Z,102239.16
2022-11-02T08:51:01.976Z,102236.25
2022-11-02T08:53:30.001Z,102235.03
2022-11-02T08:55:59.457Z,102238.59
2022-11-02T08:58:31.116Z,102239.03
2022-11-02T09:00:59.888Z,102242.41
2022-11-02T09:03:28.593Z,102244.69
2022-11-02T09:06:01.174Z,102247.41
2022-11-02T09:08:30.548Z,102247.41
2022-11-02T09:11:00.895Z,102249.47
2022-11-02T09:13:29.074Z,102248.44
2022-11-02T09:15:58.397Z,102246.56
2022-11-02T09:18:29.498Z,102240.31
2022-11-02T09:20:57.144Z,102242.81
2022-11-02T09:23:25.869Z,102246.97
2022-11-02T09:25:54.340Z,102255.66
2022-11-02T09:28:27.957Z,102254.56
2022-11-02T09:31:00.942Z,102254.75
2022-11-02T09:33:30.132Z,102260.19
2022-11-02T09:36:03.552Z,102260.94
2022-11-02T09:38:31.519Z,102260.28
2022-11-02T09:40:58.924Z,102255.97
2022-11-02T09:43:35.009Z,102256.34
2022-11-02T09:46:26.716Z,102251.56
2022-11-02T09:49:06.151Z,102264.88
2022-11-02T09:51:37.916Z,102259.84
2022-11-02T09:54:35.332Z,102256.91
2022-11-02T09:57:10.789Z,102258.81
2022-11-02T09:59:38.307Z,102251.34
2022-11-02T10:02:31.177Z,102245.69
2022-11-02T10:05:10.207Z,102254.19
2022-11-02T10:08:08.726Z,102249.88
2022-11-02T10:11:17.444Z,102253.41
2022-11-02T10:14:05.209Z,102252.19
2022-11-02T10:16:40.615Z,102259.91
2022-11-02T10:19:18.297Z,102257.97
2022-11-02T10:21:49.237Z,102260.25
2022-11-02T10:24:46.082Z,102263.59
2022-11-02T10:27:26.724Z,102260.91
2022-11-02T10:30:19.615Z,102259.38
2022-11-02T10:32:55.172Z,102259.78
2022-11-02T10:36:04.904Z,102259.34
2022-11-02T10:38:36.630Z,102248.28
2022-11-02T10:41:40.424Z,102256.84
2022-11-02T10:44:45.135Z,102249.59
2022-11-02T10:47:20.835Z,102252.91
2022-11-02T10:50:12.725Z,102250.47
2022-11-02T10:52:44.931Z,102231.88
2022-11-02T10:55:40.625Z,102239.78
2022-11-02T10:58:15.941Z,102237.75
2022-11-02T11:00:44.922Z,102236.66
2022-11-02T11:03:15.128Z,102231.44
2022-11-02T11:05:52.049Z,102229.63
2022-11-02T11:08:42.157Z,102225.38
2022-11-02T11:11:26.513Z,102218.34
2022-11-02T11:20:07.268Z,102208.88
2022-11-02T11:22:40.106Z,102205.78
2022-11-02T11:25:13.425Z,102196.34
2022-11-02T11:27:48.312Z,102201.03
2022-11-02T11:33:33.464Z,102194.06
2022-11-02T11:36:01.683Z,102195.19
2022-11-02T11:38:29.192Z,102184.31
2022-11-02T11:40:59.802Z,102183.47
2022-11-02T11:43:31.338Z,102174.97
2022-11-02T11:46:06.246Z,102169.41
2022-11-02T11:48:40.289Z,102163.94
2022-11-02T11:51:28.170Z,102154.41
2022-11-02T11:54:43.939Z,102148.47
2022-11-02T11:57:29.597Z,102154.22
2022-11-02T12:00:00.250Z,102142.53
2022-11-02T12:02:27.884Z,102143.16
2022-11-02T12:05:22.492Z,102135.25
2022-11-02T12:08:09.023Z,102127.03
2022-11-02T12:11:19.295Z,102121.47
2022-11-02T12:14:31.311Z,102117.97
2022-11-02T12:17:22.764Z,102121.31
2022-11-02T12:20:27.949Z,102122.69
2022-11-02T12:23:13.760Z,102132.44
2022-11-02T12:25:52.211Z,102123.50
2022-11-02T12:28:45.844Z,102121.59
2022-11-02T12:31:37.493Z,102114.16
2022-11-02T12:34:36.963Z,102109.25
2022-11-02T12:37:40.776Z,102102.75
2022-11-02T12:40:30.970Z,102095.22
2022-11-02T12:43:13.820Z,102094.41
2022-11-02T12:46:30.711Z,102089.72
2022-11-02T12:49:27.592Z,102086.34
2022-11-02T12:52:27.110Z,102084.22
2022-11-02T12:55:01.686Z,102081.75
2022-11-02T12:57:35.016Z,102069.78
2022-11-02T13:00:07.910Z,102068.97
2022-11-02T13:02:57.360Z,102059.31
2022-11-02T13:05:35.125Z,102062.78
2022-11-02T13:08:23.275Z,102042.28
2022-11-02T13:10:59.677Z,102047.94
2022-11-02T13:13:33.604Z,102038.28
2022-11-02T13:16:04.594Z,102037.09
2022-11-02T13:18:43.881Z,102034.59
2022-11-02T13:21:22.404Z,102033.31
2022-11-02T13:23:58.787Z,102029.63
2022-11-02T13:26:43.226Z,102027.66
2022-11-02T13:29:37.950Z,102026.47
2022-11-02T13:32:40.222Z,102025.84
2022-11-02T13:38:47.430Z,102028.66
2022-11-02T13:41:20.552Z,102015.66
2022-11-02T13:43:47.990Z,102016.75
2022-11-02T13:46:48.247Z,102018.78
2022-11-02T13:49:19.345Z,102014.25
2022-11-02T13:51:57.388Z,102009.50
2022-11-02T13:57:39.140Z,102008.88
2022-11-02T14:00:32.026Z,102007.63
2022-11-02T14:03:34.034Z,102006.34
2022-11-02T14:06:12.442Z,101999.25
2022-11-02T14:08:49.594Z,101989.13
2022-11-02T14:11:17.590Z,101991.59
2022-11-02T14:13:57.648Z,101987.06
2022-11-02T14:16:43.954Z,101981.94
2022-11-02T14:19:24.393Z,101982.84
2022-11-02T14:21:52.956Z,101988.03
2022-11-02T14:24:39.784Z,101983.44
2022-11-02T14:27:14.390Z,101980.59
2022-11-02T14:29:47.588Z,101977.31
2022-11-02T14:32:37.981Z,101973.22
2022-11-02T14:35:23.933Z,101981.53
2022-11-02T14:38:14.000Z,101990.00
2022-11-02T14:41:05.770Z,101990.50
2022-11-02T14:44:03.920Z,101985.69
2022-11-02T14:46:38.377Z,101984.75
2022-11-02T14:49:18.081Z,101986.25
2022-11-02T14:52:04.702Z,101993.97
2022-11-02T14:54:40.805Z,101996.69
2022-11-02T14:57:30.303Z,101993.13
2022-11-02T15:00:02.655Z,101985.88
2022-11-02T15:02:41.965Z,101984.78
2022-11-02T15:05:23.109Z,101986.09
2022-11-02T15:07:50.831Z,101979.84
2022-11-02T15:10:18.621Z,101972.38
2022-11-02T15:12:50.435Z,101967.38
2022-11-02T15:15:37.311Z,101969.72
2022-11-02T15:18:28.374Z,101969.56
2022-11-02T15:21:10.516Z,101971.41
2022-11-02T15:23:47.223Z,101970.19
2022-11-02T15:26:48.516Z,101965.44
2022-11-02T15:29:31.695Z,101966.47
2022-11-02T15:32:02.494Z,101966.69
2022-11-02T15:34:48.127Z,101971.69
2022-11-02T15:37:29.304Z,101962.34
2022-11-02T15:40:04.243Z,101961.72
2022-11-02T15:42:48.342Z,101964.66
2022-11-02T15:45:46.789Z,101968.19
2022-11-02T15:48:57.446Z,101969.25
2022-11-02T15:51:45.694Z,101950.75
2022-11-02T15:54:29.065Z,101962.19
2022-11-02T15:57:05.259Z,101966.13
2022-11-02T15:59:37.685Z,101978.56
2022-11-02T16:02:56.724Z,101972.94
2022-11-02T16:05:27.406Z,101968.78
2022-11-02T16:08:10.476Z,101965.91
2022-11-02T16:10:39.522Z,101969.66
2022-11-02T16:13:20.690Z,101967.59
2022-11-02T16:15:50.244Z,101959.91
2022-11-02T16:18:30.224Z,101960.09
2022-11-02T16:21:01.605Z,101953.47
2022-11-02T16:23:49.445Z,101954.34
2022-11-02T16:26:27.082Z,101951.41
2022-11-02T16:29:00.867Z,101957.03
2022-11-02T16:31:32.968Z,101956.41
2022-11-02T16:34:30.691Z,101961.00
2022-11-02T16:37:03.768Z,101956.03
2022-11-02T16:39:42.310Z,101966.44
2022-11-02T16:42:26.920Z,101966.44
2022-11-02T16:45:05.938Z,101973.72
2022-11-02T16:47:43.978Z,101968.53
2022-11-02T16:50:24.191Z,101965.63
2022-11-02T16:52:57.498Z,101960.22
2022-11-02T16:55:43.626Z,101954.41
2022-11-02T16:58:27.274Z,101950.06
2022-11-02T17:01:05.896Z,101949.00
2022-11-02T17:03:35.326Z,101950.25
2022-11-02T17:06:07.962Z,101952.53
2022-11-02T17:08:41.091Z,101952.53
2022-11-02T17:11:16.023Z,101945.69
2022-11-02T17:14:01.839Z,101951.31
2022-11-02T17:16:37.622Z,101951.09
2022-11-02T17:19:40.581Z,101946.56
2022-11-02T17:22:15.761Z,101954.84
2022-11-02T17:24:43.896Z,101950.50
2022-11-02T17:27:25.113Z,101952.16
2022-11-02T17:29:57.485Z,101954.03
2022-11-02T17:32:25.747Z,101953.59
2022-11-02T17:34:56.468Z,101953.81
2022-11-02T17:37:32.396Z,101963.16
2022-11-02T17:40:03.798Z,101964.84
2022-11-02T17:42:54.988Z,101964.03
2022-11-02T17:45:40.480Z,101968.56
2022-11-02T17:48:11.124Z,101968.19
2022-11-02T17:50:40.988Z,101973.56
2022-11-02T17:53:13.479Z,101974.59
2022-11-02T17:55:41.371Z,101974.41
2022-11-02T17:58:10.378Z,101966.09
2022-11-02T18:00:41.770Z,101973.56
2022-11-02T18:03:19.453Z,101971.91
2022-11-02T18:05:51.588Z,101976.28
2022-11-02T18:08:21.260Z,101976.28
2022-11-02T18:10:52.220Z,101979.19
2022-11-02T18:13:35.383Z,101981.06
2022-11-02T18:16:04.937Z,101979.19
2022-11-02T18:18:32.435Z,101976.28
2022-11-02T18:20:59.987Z,101987.94
2022-11-02T18:23:31.755Z,101982.31
2022-11-02T18:26:00.107Z,101970.69
2022-11-02T18:28:28.030Z,101972.13
2022-11-02T18:30:55.588Z,101978.38
2022-11-02T18:33:23.491Z,101978.38
2022-11-02T18:35:53.429Z,101981.25
2022-11-02T18:38:20.959Z,101977.13
2022-11-02T18:40:49.550Z,101981.47
2022-11-02T18:43:17.146Z,101978.16
2022-11-02T18:45:50.367Z,101972.78
2022-11-02T18:48:18.095Z,101970.28
2022-11-02T18:50:46.186Z,101972.34
2022-11-02T18:53:14.233Z,101976.72
2022-11-02T18:55:42.359Z,101971.53
2022-11-02T18:58:12.356Z,101968.81
2022-11-02T19:00:48.245Z,101966.13
2022-11-02T19:03:20.544Z,101964.47
2022-11-02T19:06:06.985Z,101964.88
2022-11-02T19:08:53.264Z,101953.28
2022-11-02T19:11:21.069Z,101955.34
2022-11-02T19:13:48.526Z,101946.41
2022-11-02T19:16:16.548Z,101944.31
2022-11-02T19:18:44.560Z,101941.84
2022-11-02T19:21:12.292Z,101939.56
2022-11-02T19:23:45.315Z,101930.66
2022-11-02T19:26:14.454Z,101931.47
2022-11-02T19:28:42.400Z,101939.34
2022-11-02T19:31:12.514Z,101938.53
2022-11-02T19:33:40.883Z,101938.75
2022-11-02T19:36:09.375Z,101931.28
2022-11-02T19:38:38.917Z,101930.66
2022-11-02T19:41:19.434Z,101926.28
2022-11-02T19:43:47.723Z,101924.59
2022-11-02T19:46:24.787Z,101927.72
2022-11-02T19:48:53.374Z,101929.78
2022-11-02T19:51:22.468Z,101925.66
2022-11-02T19:53:58.650Z,101930.81
2022-11-02T19:56:30.581Z,101933.53
2022-11-02T19:58:59.050Z,101915.69
2022-11-02T20:01:29.908Z,101905.53
2022-11-02T20:03:59.451Z,101919.63
2022-11-02T20:06:33.557Z,101916.28
2022-11-02T20:09:06.394Z,101907.16
2022-11-02T20:11:36.822Z,101901.56
2022-11-02T20:14:06.225Z,101903.63
2022-11-02T20:16:34.039Z,101900.94
2022-11-02T20:19:01.654Z,101890.97
2022-11-02T20:21:34.565Z,101895.56
2022-11-02T20:24:06.632Z,101896.38
2022-11-02T20:26:43.722Z,101901.97
2022-11-02T20:29:15.355Z,101894.72
2022-11-02T20:31:46.265Z,101909.22
2022-11-02T20:34:18.464Z,101899.69
2022-11-02T20:36:47.998Z,101894.72
2022-11-02T20:39:25.034Z,101898.44
2022-11-02T20:41:56.373Z,101899.69
2022-11-02T20:44:24.441Z,101901.75
2022-11-02T20:46:53.247Z,101902.38
2022-11-02T20:49:48.652Z,101901.75
2022-11-02T20:52:11.402Z,101909.19
2022-11-02T20:54:39.065Z,101905.66
2022-11-02T20:57:14.257Z,101909.81
2022-11-02T20:59:45.645Z,101910.44
2022-11-02T21:02:14.457Z,101907.94
2022-11-02T21:04:42.262Z,101902.34
2022-11-02T21:07:09.962Z,101904.19
2022-11-02T21:09:41.382Z,101910.63
2022-11-02T21:12:41.182Z,101912.28
2022-11-02T21:15:09.539Z,101913.47
2022-11-02T21:17:37.163Z,101914.06
2022-11-02T21:20:35.408Z,101922.34
2022-11-02T21:22:53.625Z,101921.28
2022-11-02T21:25:21.552Z,101908.16
2022-11-02T21:27:56.152Z,101911.84
2022-11-02T21:30:23.786Z,101912.06
2022-11-02T21:33:12.686Z,101907.66
2022-11-02T21:35:43.274Z,101916.75
2022-11-02T21:38:10.949Z,101911.63
2022-11-02T21:40:38.827Z,101906.69
2022-11-02T21:43:06.974Z,101900.44
2022-11-02T21:45:37.916Z,101907.09
2022-11-02T21:48:06.624Z,101903.78
2022-11-02T21:50:34.737Z,101902.72
2022-11-02T21:53:02.401Z,101903.09
2022-11-02T21:55:30.157Z,101902.94
2022-11-02T21:57:57.494Z,101900.59
2022-11-02T22:00:45.085Z,101896.50
2022-11-02T22:03:12.678Z,101906.25
2022-11-02T22:05:56.138Z,101901.66
2022-11-02T22:08:40.352Z,101899.75
2022-11-02T22:11:23.412Z,101906.31
2022-11-02T22:14:01.798Z,101894.28
2022-11-02T22:16:42.967Z,101901.69
2022-11-02T22:19:15.750Z,101897.97
2022-11-02T22:21:45.764Z,101890.72
2022-11-02T22:24:13.738Z,101887.81
2022-11-02T22:26:42.166Z,101888.88
2022-11-02T22:29:23.803Z,101886.56
2022-11-02T22:31:51.995Z,101883.31
2022-11-02T22:34:20.036Z,101874.00
2022-11-02T22:36:50.179Z,101868.81
2022-11-02T22:39:21.790Z,101872.53
2022-11-02T22:41:50.464Z,101868.81
2022-11-02T22:44:21.324Z,101871.06
2022-11-02T22:46:50.470Z,101867.28
2022-11-02T22:49:20.254Z,101854.66
2022-11-02T22:51:50.367Z,101855.91
2022-11-02T22:54:19.846Z,101854.28
2022-11-02T22:56:49.243Z,101851.91
2022-11-02T22:59:17.515Z,101852.69
2022-11-02T23:01:45.602Z,101851.09
2022-11-02T23:04:13.939Z,101849.81
2022-11-02T23:06:41.317Z,101848.81
2022-11-02T23:09:12.594Z,101839.00
2022-11-02T23:11:44.482Z,101837.72
2022-11-02T23:14:14.530Z,101839.13
2022-11-02T23:16:44.366Z,101833.22
2022-11-02T23:19:33.059Z,101825.69
2022-11-02T23:22:25.850Z,101827.50
2022-11-02T23:25:12.404Z,101821.88
2022-11-02T23:28:27.490Z,101823.16
2022-11-02T23:31:15.028Z,101816.69
2022-11-02T23:33:42.576Z,101820.91
2022-11-02T23:36:14.162Z,101816.91
2022-11-02T23:39:03.233Z,101822.22
2022-11-02T23:41:32.953Z,101815.59
2022-11-02T23:44:14.320Z,101811.81
2022-11-02T23:46:44.312Z,101799.13
2022-11-02T23:49:13.642Z,101808.78
2022-11-02T23:52:00.377Z,101800.91
2022-11-02T23:54:47.151Z,101793.47
2022-11-02T23:57:14.694Z,101794.53
2022-11-02T23:59:42.308Z,101788.31
